sensor_id;sensor_type;location;lat;lon;timestamp;P1;durP1;ratioP1;P2;durP2;ratioP2
68718;SDS011;55696;52.138;5.444;2023-02-26T00:01:21;6.45;;;1.33;;
68718;SDS011;55696;52.138;5.444;2023-02-26T00:03:49;8.05;;;1.23;;
68718;SDS011;55696;52.138;5.444;2023-02-26T00:06:17;5.73;;;1.33;;
68718;SDS011;55696;52.138;5.444;2023-02-26T00:08:45;5.15;;;1.40;;
68718;SDS011;55696;52.138;5.444;2023-02-26T00:11:12;5.30;;;1.45;;
68718;SDS011;55696;52.138;5.444;2023-02-26T00:13:40;4.90;;;1.27;;
68718;SDS011;55696;52.138;5.444;2023-02-26T00:18:52;4.05;;;1.10;;
68718;SDS011;55696;52.138;5.444;2023-02-26T00:21:20;5.18;;;1.20;;
68718;SDS011;55696;52.138;5.444;2023-02-26T00:23:48;5.60;;;1.43;;
68718;SDS011;55696;52.138;5.444;2023-02-26T00:26:15;3.78;;;1.13;;
68718;SDS011;55696;52.138;5.444;2023-02-26T00:28:42;3.60;;;1.25;;
68718;SDS011;55696;52.138;5.444;2023-02-26T00:31:09;3.20;;;1.20;;
68718;SDS011;55696;52.138;5.444;2023-02-26T00:33:37;2.97;;;0.80;;
68718;SDS011;55696;52.138;5.444;2023-02-26T00:36:18;7.32;;;1.08;;
68718;SDS011;55696;52.138;5.444;2023-02-26T00:39:05;3.97;;;0.88;;
68718;SDS011;55696;52.138;5.444;2023-02-26T00:41:38;3.00;;;1.07;;
68718;SDS011;55696;52.138;5.444;2023-02-26T00:44:06;6.40;;;1.00;;
68718;SDS011;55696;52.138;5.444;2023-02-26T00:46:35;3.22;;;0.93;;
68718;SDS011;55696;52.138;5.444;2023-02-26T00:49:22;4.68;;;1.20;;
68718;SDS011;55696;52.138;5.444;2023-02-26T00:51:57;9.50;;;1.20;;
68718;SDS011;55696;52.138;5.444;2023-02-26T00:54:26;3.40;;;1.20;;
68718;SDS011;55696;52.138;5.444;2023-02-26T00:56:56;6.53;;;1.23;;
68718;SDS011;55696;52.138;5.444;2023-02-26T00:59:24;6.03;;;1.30;;
68718;SDS011;55696;52.138;5.444;2023-02-26T01:01:51;4.13;;;0.97;;
68718;SDS011;55696;52.138;5.444;2023-02-26T01:04:19;2.92;;;0.90;;
68718;SDS011;55696;52.138;5.444;2023-02-26T01:06:49;4.28;;;1.10;;
68718;SDS011;55696;52.138;5.444;2023-02-26T01:09:26;3.20;;;0.88;;
68718;SDS011;55696;52.138;5.444;2023-02-26T01:12:00;5.03;;;1.00;;
68718;SDS011;55696;52.138;5.444;2023-02-26T01:14:30;1.73;;;0.80;;
68718;SDS011;55696;52.138;5.444;2023-02-26T01:22:24;6.10;;;1.17;;
68718;SDS011;55696;52.138;5.444;2023-02-26T01:25:01;8.05;;;1.10;;
68718;SDS011;55696;52.138;5.444;2023-02-26T01:27:34;5.65;;;1.30;;
68718;SDS011;55696;52.138;5.444;2023-02-26T01:30:01;7.47;;;1.10;;
68718;SDS011;55696;52.138;5.444;2023-02-26T01:32:37;11.68;;;1.63;;
68718;SDS011;55696;52.138;5.444;2023-02-26T01:40:43;5.53;;;1.23;;
68718;SDS011;55696;52.138;5.444;2023-02-26T01:43:19;5.38;;;1.27;;
68718;SDS011;55696;52.138;5.444;2023-02-26T01:46:01;3.65;;;1.10;;
68718;SDS011;55696;52.138;5.444;2023-02-26T01:48:53;4.03;;;1.30;;
68718;SDS011;55696;52.138;5.444;2023-02-26T01:54:10;5.05;;;0.95;;
68718;SDS011;55696;52.138;5.444;2023-02-26T01:56:38;4.35;;;1.13;;
68718;SDS011;55696;52.138;5.444;2023-02-26T01:59:06;5.50;;;1.40;;
68718;SDS011;55696;52.138;5.444;2023-02-26T02:01:36;5.57;;;1.00;;
68718;SDS011;55696;52.138;5.444;2023-02-26T02:04:05;5.18;;;1.20;;
68718;SDS011;55696;52.138;5.444;2023-02-26T02:06:37;2.75;;;0.90;;
68718;SDS011;55696;52.138;5.444;2023-02-26T02:09:05;7.90;;;1.40;;
68718;SDS011;55696;52.138;5.444;2023-02-26T02:11:33;6.75;;;0.88;;
68718;SDS011;55696;52.138;5.444;2023-02-26T02:14:12;4.47;;;1.10;;
68718;SDS011;55696;52.138;5.444;2023-02-26T02:16:54;5.05;;;0.90;;
68718;SDS011;55696;52.138;5.444;2023-02-26T02:24:57;2.72;;;0.80;;
68718;SDS011;55696;52.138;5.444;2023-02-26T02:33:18;3.47;;;1.10;;
68718;SDS011;55696;52.138;5.444;2023-02-26T02:35:49;8.80;;;1.10;;
68718;SDS011;55696;52.138;5.444;2023-02-26T02:38:35;5.43;;;1.53;;
68718;SDS011;55696;52.138;5.444;2023-02-26T02:41:27;9.60;;;1.70;;
68718;SDS011;55696;52.138;5.444;2023-02-26T02:43:58;4.18;;;1.30;;
68718;SDS011;55696;52.138;5.444;2023-02-26T02:46:32;6.22;;;1.10;;
68718;SDS011;55696;52.138;5.444;2023-02-26T02:49:10;7.17;;;1.30;;
68718;SDS011;55696;52.138;5.444;2023-02-26T02:51:43;3.50;;;1.10;;
68718;SDS011;55696;52.138;5.444;2023-02-26T02:54:37;7.28;;;1.10;;
68718;SDS011;55696;52.138;5.444;2023-02-26T02:59:47;3.95;;;0.90;;
68718;SDS011;55696;52.138;5.444;2023-02-26T03:02:18;2.72;;;1.08;;
68718;SDS011;55696;52.138;5.444;2023-02-26T03:05:03;9.88;;;1.20;;
68718;SDS011;55696;52.138;5.444;2023-02-26T03:07:31;3.53;;;1.00;;
68718;SDS011;55696;52.138;5.444;2023-02-26T03:10:01;2.63;;;0.90;;
68718;SDS011;55696;52.138;5.444;2023-02-26T03:12:32;4.50;;;1.00;;
68718;SDS011;55696;52.138;5.444;2023-02-26T03:15:00;6.83;;;1.63;;
68718;SDS011;55696;52.138;5.444;2023-02-26T03:25:39;4.35;;;1.40;;
68718;SDS011;55696;52.138;5.444;2023-02-26T03:35:37;5.15;;;1.20;;
68718;SDS011;55696;52.138;5.444;2023-02-26T03:38:07;3.20;;;0.90;;
68718;SDS011;55696;52.138;5.444;2023-02-26T03:40:40;4.67;;;0.80;;
68718;SDS011;55696;52.138;5.444;2023-02-26T03:45:45;5.38;;;0.88;;
68718;SDS011;55696;52.138;5.444;2023-02-26T03:48:16;4.68;;;0.90;;
68718;SDS011;55696;52.138;5.444;2023-02-26T03:50:48;2.20;;;0.70;;
68718;SDS011;55696;52.138;5.444;2023-02-26T03:53:44;3.85;;;1.10;;
68718;SDS011;55696;52.138;5.444;2023-02-26T03:56:24;2.50;;;0.70;;
68718;SDS011;55696;52.138;5.444;2023-02-26T03:59:17;1.70;;;0.50;;
68718;SDS011;55696;52.138;5.444;2023-02-26T04:07:20;4.40;;;1.10;;
68718;SDS011;55696;52.138;5.444;2023-02-26T04:09:48;4.20;;;1.10;;
68718;SDS011;55696;52.138;5.444;2023-02-26T04:12:22;4.38;;;1.10;;
68718;SDS011;55696;52.138;5.444;2023-02-26T04:14:53;5.90;;;0.98;;
68718;SDS011;55696;52.138;5.444;2023-02-26T04:17:21;2.47;;;0.73;;
68718;SDS011;55696;52.138;5.444;2023-02-26T04:19:48;5.03;;;1.20;;
68718;SDS011;55696;52.138;5.444;2023-02-26T04:22:16;3.22;;;0.90;;
68718;SDS011;55696;52.138;5.444;2023-02-26T04:24:43;2.47;;;0.80;;
68718;SDS011;55696;52.138;5.444;2023-02-26T04:27:11;4.70;;;1.10;;
68718;SDS011;55696;52.138;5.444;2023-02-26T04:29:38;2.75;;;1.08;;
68718;SDS011;55696;52.138;5.444;2023-02-26T04:32:05;4.07;;;1.08;;
68718;SDS011;55696;52.138;5.444;2023-02-26T04:34:32;3.75;;;0.70;;
68718;SDS011;55696;52.138;5.444;2023-02-26T04:36:59;3.72;;;1.13;;
68718;SDS011;55696;52.138;5.444;2023-02-26T04:39:26;3.53;;;0.75;;
68718;SDS011;55696;52.138;5.444;2023-02-26T04:41:53;4.83;;;1.20;;
68718;SDS011;55696;52.138;5.444;2023-02-26T04:44:19;3.88;;;1.42;;
68718;SDS011;55696;52.138;5.444;2023-02-26T04:46:46;6.30;;;1.17;;
68718;SDS011;55696;52.138;5.444;2023-02-26T04:49:13;4.82;;;1.10;;
68718;SDS011;55696;52.138;5.444;2023-02-26T04:51:42;3.77;;;1.03;;
68718;SDS011;55696;52.138;5.444;2023-02-26T04:54:11;6.97;;;1.25;;
68718;SDS011;55696;52.138;5.444;2023-02-26T04:56:39;3.72;;;1.00;;
68718;SDS011;55696;52.138;5.444;2023-02-26T04:59:06;3.23;;;0.80;;
68718;SDS011;55696;52.138;5.444;2023-02-26T05:01:33;4.78;;;0.98;;
68718;SDS011;55696;52.138;5.444;2023-02-26T05:04:03;4.53;;;1.20;;
68718;SDS011;55696;52.138;5.444;2023-02-26T05:06:30;2.28;;;0.70;;
68718;SDS011;55696;52.138;5.444;2023-02-26T05:08:57;4.07;;;1.13;;
68718;SDS011;55696;52.138;5.444;2023-02-26T05:11:24;3.38;;;0.80;;
68718;SDS011;55696;52.138;5.444;2023-02-26T05:13:52;3.85;;;0.90;;
68718;SDS011;55696;52.138;5.444;2023-02-26T05:16:18;3.97;;;0.97;;
68718;SDS011;55696;52.138;5.444;2023-02-26T05:18:45;6.85;;;1.17;;
68718;SDS011;55696;52.138;5.444;2023-02-26T05:21:12;2.05;;;0.75;;
68718;SDS011;55696;52.138;5.444;2023-02-26T05:23:39;6.40;;;1.07;;
68718;SDS011;55696;52.138;5.444;2023-02-26T05:26:06;6.50;;;1.02;;
68718;SDS011;55696;52.138;5.444;2023-02-26T05:28:33;5.32;;;1.40;;
68718;SDS011;55696;52.138;5.444;2023-02-26T05:31:01;6.18;;;1.15;;
68718;SDS011;55696;52.138;5.444;2023-02-26T05:33:28;4.43;;;1.10;;
68718;SDS011;55696;52.138;5.444;2023-02-26T05:35:55;5.38;;;0.85;;
68718;SDS011;55696;52.138;5.444;2023-02-26T05:38:22;2.90;;;1.13;;
68718;SDS011;55696;52.138;5.444;2023-02-26T05:40:49;9.98;;;1.48;;
68718;SDS011;55696;52.138;5.444;2023-02-26T05:43:16;4.75;;;1.30;;
68718;SDS011;55696;52.138;5.444;2023-02-26T05:45:43;3.88;;;1.40;;
68718;SDS011;55696;52.138;5.444;2023-02-26T05:48:10;4.22;;;1.05;;
68718;SDS011;55696;52.138;5.444;2023-02-26T05:50:36;2.80;;;1.00;;
68718;SDS011;55696;52.138;5.444;2023-02-26T05:53:03;2.00;;;0.80;;
68718;SDS011;55696;52.138;5.444;2023-02-26T05:55:30;4.88;;;0.93;;
68718;SDS011;55696;52.138;5.444;2023-02-26T05:57:57;4.60;;;1.23;;
68718;SDS011;55696;52.138;5.444;2023-02-26T06:00:24;6.90;;;0.80;;
68718;SDS011;55696;52.138;5.444;2023-02-26T06:02:51;4.90;;;1.15;;
68718;SDS011;55696;52.138;5.444;2023-02-26T06:05:18;3.47;;;1.00;;
68718;SDS011;55696;52.138;5.444;2023-02-26T06:07:45;4.80;;;0.95;;
68718;SDS011;55696;52.138;5.444;2023-02-26T06:10:12;4.20;;;0.80;;
68718;SDS011;55696;52.138;5.444;2023-02-26T06:12:39;4.78;;;1.25;;
68718;SDS011;55696;52.138;5.444;2023-02-26T06:15:06;4.93;;;1.20;;
68718;SDS011;55696;52.138;5.444;2023-02-26T06:17:35;5.90;;;1.42;;
68718;SDS011;55696;52.138;5.444;2023-02-26T06:20:05;5.72;;;1.00;;
68718;SDS011;55696;52.138;5.444;2023-02-26T06:22:32;3.20;;;0.77;;
68718;SDS011;55696;52.138;5.444;2023-02-26T06:24:59;3.47;;;0.82;;
68718;SDS011;55696;52.138;5.444;2023-02-26T06:27:26;3.72;;;1.15;;
68718;SDS011;55696;52.138;5.444;2023-02-26T06:29:52;3.10;;;1.25;;
68718;SDS011;55696;52.138;5.444;2023-02-26T06:32:19;4.40;;;1.20;;
68718;SDS011;55696;52.138;5.444;2023-02-26T06:34:46;5.50;;;1.17;;
68718;SDS011;55696;52.138;5.444;2023-02-26T06:37:13;3.67;;;1.33;;
68718;SDS011;55696;52.138;5.444;2023-02-26T06:39:40;5.50;;;1.00;;
68718;SDS011;55696;52.138;5.444;2023-02-26T06:42:07;6.07;;;1.00;;
68718;SDS011;55696;52.138;5.444;2023-02-26T06:44:34;5.35;;;0.70;;
68718;SDS011;55696;52.138;5.444;2023-02-26T06:47:00;4.60;;;1.00;;
68718;SDS011;55696;52.138;5.444;2023-02-26T06:49:27;6.53;;;1.10;;
68718;SDS011;55696;52.138;5.444;2023-02-26T06:51:54;8.25;;;1.13;;
68718;SDS011;55696;52.138;5.444;2023-02-26T06:54:21;8.50;;;1.10;;
68718;SDS011;55696;52.138;5.444;2023-02-26T06:56:48;4.30;;;1.20;;
68718;SDS011;55696;52.138;5.444;2023-02-26T06:59:15;7.47;;;1.13;;
68718;SDS011;55696;52.138;5.444;2023-02-26T07:01:42;9.82;;;1.13;;
68718;SDS011;55696;52.138;5.444;2023-02-26T07:04:09;4.33;;;1.00;;
68718;SDS011;55696;52.138;5.444;2023-02-26T07:06:36;4.68;;;1.02;;
68718;SDS011;55696;52.138;5.444;2023-02-26T07:09:03;4.80;;;1.17;;
68718;SDS011;55696;52.138;5.444;2023-02-26T07:11:30;1.87;;;0.70;;
68718;SDS011;55696;52.138;5.444;2023-02-26T07:13:56;4.70;;;1.00;;
68718;SDS011;55696;52.138;5.444;2023-02-26T07:16:23;7.72;;;1.42;;
68718;SDS011;55696;52.138;5.444;2023-02-26T07:18:50;2.03;;;1.02;;
68718;SDS011;55696;52.138;5.444;2023-02-26T07:21:17;4.22;;;1.10;;
68718;SDS011;55696;52.138;5.444;2023-02-26T07:23:44;8.18;;;1.10;;
68718;SDS011;55696;52.138;5.444;2023-02-26T07:26:11;8.93;;;1.50;;
68718;SDS011;55696;52.138;5.444;2023-02-26T07:28:38;4.00;;;0.87;;
68718;SDS011;55696;52.138;5.444;2023-02-26T07:31:04;10.65;;;1.10;;
68718;SDS011;55696;52.138;5.444;2023-02-26T07:33:31;3.45;;;0.95;;
68718;SDS011;55696;52.138;5.444;2023-02-26T07:36:00;5.60;;;1.20;;
68718;SDS011;55696;52.138;5.444;2023-02-26T07:38:27;4.80;;;1.05;;
68718;SDS011;55696;52.138;5.444;2023-02-26T07:40:54;6.93;;;1.70;;
68718;SDS011;55696;52.138;5.444;2023-02-26T07:43:22;5.20;;;1.05;;
68718;SDS011;55696;52.138;5.444;2023-02-26T07:45:49;4.55;;;1.10;;
68718;SDS011;55696;52.138;5.444;2023-02-26T07:48:17;3.00;;;1.27;;
68718;SDS011;55696;52.138;5.444;2023-02-26T07:50:44;6.20;;;1.08;;
68718;SDS011;55696;52.138;5.444;2023-02-26T07:53:11;3.57;;;0.90;;
68718;SDS011;55696;52.138;5.444;2023-02-26T07:55:38;6.85;;;1.17;;
68718;SDS011;55696;52.138;5.444;2023-02-26T07:58:05;4.85;;;1.40;;
68718;SDS011;55696;52.138;5.444;2023-02-26T08:00:31;2.27;;;0.90;;
68718;SDS011;55696;52.138;5.444;2023-02-26T08:02:58;7.57;;;1.13;;
68718;SDS011;55696;52.138;5.444;2023-02-26T08:05:25;9.52;;;1.10;;
68718;SDS011;55696;52.138;5.444;2023-02-26T08:07:55;3.95;;;0.90;;
68718;SDS011;55696;52.138;5.444;2023-02-26T08:10:22;3.92;;;1.30;;
68718;SDS011;55696;52.138;5.444;2023-02-26T08:12:49;8.05;;;1.30;;
68718;SDS011;55696;52.138;5.444;2023-02-26T08:15:15;5.65;;;1.50;;
68718;SDS011;55696;52.138;5.444;2023-02-26T08:17:42;5.63;;;1.30;;
68718;SDS011;55696;52.138;5.444;2023-02-26T08:20:09;6.72;;;1.30;;
68718;SDS011;55696;52.138;5.444;2023-02-26T08:22:37;9.48;;;1.02;;
68718;SDS011;55696;52.138;5.444;2023-02-26T08:25:04;3.50;;;1.10;;
68718;SDS011;55696;52.138;5.444;2023-02-26T08:27:31;6.93;;;1.20;;
68718;SDS011;55696;52.138;5.444;2023-02-26T08:29:58;6.97;;;0.98;;
68718;SDS011;55696;52.138;5.444;2023-02-26T08:32:25;3.20;;;1.00;;
68718;SDS011;55696;52.138;5.444;2023-02-26T08:34:53;5.05;;;1.13;;
68718;SDS011;55696;52.138;5.444;2023-02-26T08:37:20;6.55;;;1.02;;
68718;SDS011;55696;52.138;5.444;2023-02-26T08:39:50;3.17;;;0.93;;
68718;SDS011;55696;52.138;5.444;2023-02-26T08:42:19;5.43;;;1.00;;
68718;SDS011;55696;52.138;5.444;2023-02-26T08:44:46;2.30;;;0.95;;
68718;SDS011;55696;52.138;5.444;2023-02-26T08:47:13;5.47;;;1.35;;
68718;SDS011;55696;52.138;5.444;2023-02-26T08:49:49;4.22;;;1.50;;
68718;SDS011;55696;52.138;5.444;2023-02-26T08:52:16;8.07;;;1.73;;
68718;SDS011;55696;52.138;5.444;2023-02-26T08:54:43;10.73;;;1.50;;
68718;SDS011;55696;52.138;5.444;2023-02-26T08:57:10;8.70;;;1.50;;
68718;SDS011;55696;52.138;5.444;2023-02-26T08:59:37;4.77;;;1.27;;
68718;SDS011;55696;52.138;5.444;2023-02-26T09:02:04;4.30;;;0.90;;
68718;SDS011;55696;52.138;5.444;2023-02-26T09:04:31;6.22;;;0.98;;
68718;SDS011;55696;52.138;5.444;2023-02-26T09:06:57;4.97;;;1.23;;
68718;SDS011;55696;52.138;5.444;2023-02-26T09:09:24;3.90;;;1.23;;
68718;SDS011;55696;52.138;5.444;2023-02-26T09:11:51;1.25;;;0.80;;
68718;SDS011;55696;52.138;5.444;2023-02-26T09:14:18;1.75;;;0.60;;
68718;SDS011;55696;52.138;5.444;2023-02-26T09:16:45;3.85;;;1.25;;
68718;SDS011;55696;52.138;5.444;2023-02-26T09:19:14;2.83;;;0.93;;
68718;SDS011;55696;52.138;5.444;2023-02-26T09:21:41;5.30;;;1.60;;
68718;SDS011;55696;52.138;5.444;2023-02-26T09:24:08;3.35;;;1.10;;
68718;SDS011;55696;52.138;5.444;2023-02-26T09:26:35;3.97;;;0.95;;
68718;SDS011;55696;52.138;5.444;2023-02-26T09:29:03;4.50;;;1.00;;
68718;SDS011;55696;52.138;5.444;2023-02-26T09:31:30;2.30;;;0.95;;
68718;SDS011;55696;52.138;5.444;2023-02-26T09:33:58;5.28;;;1.00;;
68718;SDS011;55696;52.138;5.444;2023-02-26T09:36:24;3.08;;;1.30;;
68718;SDS011;55696;52.138;5.444;2023-02-26T09:38:52;3.60;;;1.30;;
68718;SDS011;55696;52.138;5.444;2023-02-26T09:41:23;3.33;;;0.98;;
68718;SDS011;55696;52.138;5.444;2023-02-26T09:49:44;4.07;;;1.42;;
68718;SDS011;55696;52.138;5.444;2023-02-26T09:55:36;1.48;;;0.93;;
68718;SDS011;55696;52.138;5.444;2023-02-26T09:58:20;1.95;;;0.90;;
68718;SDS011;55696;52.138;5.444;2023-02-26T10:11:55;2.05;;;0.98;;
68718;SDS011;55696;52.138;5.444;2023-02-26T10:14:26;7.63;;;1.10;;
68718;SDS011;55696;52.138;5.444;2023-02-26T10:16:55;5.03;;;1.00;;
68718;SDS011;55696;52.138;5.444;2023-02-26T10:19:26;2.95;;;1.25;;
68718;SDS011;55696;52.138;5.444;2023-02-26T10:22:03;2.45;;;0.73;;
68718;SDS011;55696;52.138;5.444;2023-02-26T10:24:54;1.42;;;0.77;;
68718;SDS011;55696;52.138;5.444;2023-02-26T10:27:35;2.23;;;0.90;;
68718;SDS011;55696;52.138;5.444;2023-02-26T10:30:22;6.70;;;0.80;;
68718;SDS011;55696;52.138;5.444;2023-02-26T10:35:52;2.22;;;0.80;;
68718;SDS011;55696;52.138;5.444;2023-02-26T10:38:24;2.67;;;1.00;;
68718;SDS011;55696;52.138;5.444;2023-02-26T10:41:07;3.13;;;0.80;;
68718;SDS011;55696;52.138;5.444;2023-02-26T10:43:55;4.32;;;0.90;;
68718;SDS011;55696;52.138;5.444;2023-02-26T10:46:51;5.03;;;1.42;;
68718;SDS011;55696;52.138;5.444;2023-02-26T10:49:53;2.13;;;1.17;;
68718;SDS011;55696;52.138;5.444;2023-02-26T10:52:26;5.25;;;1.15;;
68718;SDS011;55696;52.138;5.444;2023-02-26T10:57:27;1.55;;;0.68;;
68718;SDS011;55696;52.138;5.444;2023-02-26T10:59:59;2.65;;;1.20;;
68718;SDS011;55696;52.138;5.444;2023-02-26T11:02:38;4.15;;;0.98;;
68718;SDS011;55696;52.138;5.444;2023-02-26T11:05:11;2.13;;;1.00;;
68718;SDS011;55696;52.138;5.444;2023-02-26T11:08:01;1.08;;;0.75;;
68718;SDS011;55696;52.138;5.444;2023-02-26T11:11:33;1.67;;;0.85;;
68718;SDS011;55696;52.138;5.444;2023-02-26T11:13:21;2.58;;;1.00;;
68718;SDS011;55696;52.138;5.444;2023-02-26T11:15:50;4.30;;;1.10;;
68718;SDS011;55696;52.138;5.444;2023-02-26T11:18:26;3.23;;;1.20;;
68718;SDS011;55696;52.138;5.444;2023-02-26T11:20:57;2.30;;;1.13;;
68718;SDS011;55696;52.138;5.444;2023-02-26T11:23:26;4.10;;;1.20;;
68718;SDS011;55696;52.138;5.444;2023-02-26T11:26:06;2.65;;;1.10;;
68718;SDS011;55696;52.138;5.444;2023-02-26T11:28:46;2.40;;;1.10;;
68718;SDS011;55696;52.138;5.444;2023-02-26T11:31:18;2.03;;;1.00;;
68718;SDS011;55696;52.138;5.444;2023-02-26T11:33:48;3.00;;;1.35;;
68718;SDS011;55696;52.138;5.444;2023-02-26T11:36:17;2.25;;;0.75;;
68718;SDS011;55696;52.138;5.444;2023-02-26T11:38:51;1.25;;;0.90;;
68718;SDS011;55696;52.138;5.444;2023-02-26T11:41:21;2.63;;;0.95;;
68718;SDS011;55696;52.138;5.444;2023-02-26T11:43:56;2.90;;;1.00;;
68718;SDS011;55696;52.138;5.444;2023-02-26T11:46:23;1.75;;;0.93;;
68718;SDS011;55696;52.138;5.444;2023-02-26T11:48:51;4.75;;;1.00;;
68718;SDS011;55696;52.138;5.444;2023-02-26T11:51:23;3.95;;;1.77;;
68718;SDS011;55696;52.138;5.444;2023-02-26T11:53:53;1.80;;;1.00;;
68718;SDS011;55696;52.138;5.444;2023-02-26T11:56:33;3.83;;;1.00;;
68718;SDS011;55696;52.138;5.444;2023-02-26T11:59:07;2.35;;;1.15;;
68718;SDS011;55696;52.138;5.444;2023-02-26T12:01:48;1.90;;;1.05;;
68718;SDS011;55696;52.138;5.444;2023-02-26T12:04:20;3.97;;;1.00;;
68718;SDS011;55696;52.138;5.444;2023-02-26T12:06:50;2.35;;;1.10;;
68718;SDS011;55696;52.138;5.444;2023-02-26T12:09:18;1.00;;;0.90;;
68718;SDS011;55696;52.138;5.444;2023-02-26T12:12:22;6.00;;;1.02;;
68718;SDS011;55696;52.138;5.444;2023-02-26T12:14:52;2.55;;;0.90;;
68718;SDS011;55696;52.138;5.444;2023-02-26T12:17:38;1.38;;;0.77;;
68718;SDS011;55696;52.138;5.444;2023-02-26T12:25:58;1.67;;;0.75;;
68718;SDS011;55696;52.138;5.444;2023-02-26T12:33:59;2.13;;;0.98;;
68718;SDS011;55696;52.138;5.444;2023-02-26T12:36:57;6.67;;;1.00;;
68718;SDS011;55696;52.138;5.444;2023-02-26T12:53:55;4.70;;;1.30;;
68718;SDS011;55696;52.138;5.444;2023-02-26T13:02:11;2.35;;;0.70;;
68718;SDS011;55696;52.138;5.444;2023-02-26T13:19:15;4.60;;;1.33;;
68718;SDS011;55696;52.138;5.444;2023-02-26T13:21:19;2.78;;;1.00;;
68718;SDS011;55696;52.138;5.444;2023-02-26T13:26:40;3.90;;;1.00;;
68718;SDS011;55696;52.138;5.444;2023-02-26T13:29:18;2.50;;;0.82;;
68718;SDS011;55696;52.138;5.444;2023-02-26T13:31:56;3.37;;;1.17;;
68718;SDS011;55696;52.138;5.444;2023-02-26T13:37:25;1.30;;;0.75;;
68718;SDS011;55696;52.138;5.444;2023-02-26T13:40:32;1.33;;;0.95;;
68718;SDS011;55696;52.138;5.444;2023-02-26T13:48:50;1.60;;;0.85;;
68718;SDS011;55696;52.138;5.444;2023-02-26T13:51:32;2.67;;;0.93;;
68718;SDS011;55696;52.138;5.444;2023-02-26T14:12:34;1.97;;;1.20;;
68718;SDS011;55696;52.138;5.444;2023-02-26T14:17:47;1.63;;;0.80;;
68718;SDS011;55696;52.138;5.444;2023-02-26T14:20:17;4.85;;;0.90;;
68718;SDS011;55696;52.138;5.444;2023-02-26T14:23:33;1.67;;;0.77;;
68718;SDS011;55696;52.138;5.444;2023-02-26T14:25:38;1.90;;;1.00;;
68718;SDS011;55696;52.138;5.444;2023-02-26T14:33:38;2.17;;;0.93;;
68718;SDS011;55696;52.138;5.444;2023-02-26T14:36:18;1.88;;;0.85;;
68718;SDS011;55696;52.138;5.444;2023-02-26T14:38:50;5.13;;;1.17;;
68718;SDS011;55696;52.138;5.444;2023-02-26T14:41:22;3.05;;;0.77;;
68718;SDS011;55696;52.138;5.444;2023-02-26T14:43:59;1.38;;;0.80;;
68718;SDS011;55696;52.138;5.444;2023-02-26T14:46:38;1.77;;;1.10;;
68718;SDS011;55696;52.138;5.444;2023-02-26T14:49:07;2.78;;;1.00;;
68718;SDS011;55696;52.138;5.444;2023-02-26T14:52:11;2.83;;;1.10;;
68718;SDS011;55696;52.138;5.444;2023-02-26T14:58:06;2.78;;;0.90;;
68718;SDS011;55696;52.138;5.444;2023-02-26T15:04:30;2.13;;;0.70;;
68718;SDS011;55696;52.138;5.444;2023-02-26T15:23:53;1.83;;;1.02;;
68718;SDS011;55696;52.138;5.444;2023-02-26T15:26:22;2.38;;;1.25;;
68718;SDS011;55696;52.138;5.444;2023-02-26T15:29:04;2.22;;;1.48;;
68718;SDS011;55696;52.138;5.444;2023-02-26T15:31:36;2.92;;;1.08;;
68718;SDS011;55696;52.138;5.444;2023-02-26T15:34:10;2.50;;;0.97;;
68718;SDS011;55696;52.138;5.444;2023-02-26T15:36:39;2.03;;;1.05;;
68718;SDS011;55696;52.138;5.444;2023-02-26T15:39:12;3.65;;;1.10;;
68718;SDS011;55696;52.138;5.444;2023-02-26T15:41:41;2.33;;;1.20;;
68718;SDS011;55696;52.138;5.444;2023-02-26T15:44:08;1.63;;;1.00;;
68718;SDS011;55696;52.138;5.444;2023-02-26T15:46:40;2.70;;;0.97;;
68718;SDS011;55696;52.138;5.444;2023-02-26T15:49:12;3.85;;;0.93;;
68718;SDS011;55696;52.138;5.444;2023-02-26T15:51:43;2.85;;;0.98;;
68718;SDS011;55696;52.138;5.444;2023-02-26T15:54:14;2.63;;;1.17;;
68718;SDS011;55696;52.138;5.444;2023-02-26T15:56:44;8.18;;;1.27;;
68718;SDS011;55696;52.138;5.444;2023-02-26T15:59:34;2.23;;;1.37;;
68718;SDS011;55696;52.138;5.444;2023-02-26T16:02:11;5.28;;;1.23;;
68718;SDS011;55696;52.138;5.444;2023-02-26T16:04:45;2.17;;;0.90;;
68718;SDS011;55696;52.138;5.444;2023-02-26T16:07:12;2.25;;;0.98;;
68718;SDS011;55696;52.138;5.444;2023-02-26T16:09:41;1.92;;;1.10;;
68718;SDS011;55696;52.138;5.444;2023-02-26T16:14:58;2.90;;;1.05;;
68718;SDS011;55696;52.138;5.444;2023-02-26T16:17:29;4.45;;;1.50;;
68718;SDS011;55696;52.138;5.444;2023-02-26T16:20:01;3.17;;;1.25;;
68718;SDS011;55696;52.138;5.444;2023-02-26T16:23:05;2.58;;;1.15;;
68718;SDS011;55696;52.138;5.444;2023-02-26T16:25:35;5.17;;;0.90;;
68718;SDS011;55696;52.138;5.444;2023-02-26T16:28:20;2.65;;;1.10;;
68718;SDS011;55696;52.138;5.444;2023-02-26T16:30:51;2.75;;;0.82;;
68718;SDS011;55696;52.138;5.444;2023-02-26T16:33:22;3.65;;;1.00;;
68718;SDS011;55696;52.138;5.444;2023-02-26T16:35:55;8.43;;;1.10;;
68718;SDS011;55696;52.138;5.444;2023-02-26T16:38:59;6.57;;;1.17;;
68718;SDS011;55696;52.138;5.444;2023-02-26T16:41:34;2.38;;;1.00;;
68718;SDS011;55696;52.138;5.444;2023-02-26T16:44:03;3.75;;;0.98;;
68718;SDS011;55696;52.138;5.444;2023-02-26T16:46:51;4.15;;;1.17;;
68718;SDS011;55696;52.138;5.444;2023-02-26T16:49:23;4.75;;;1.23;;
68718;SDS011;55696;52.138;5.444;2023-02-26T16:51:52;5.90;;;1.50;;
68718;SDS011;55696;52.138;5.444;2023-02-26T16:54:22;5.72;;;1.45;;
68718;SDS011;55696;52.138;5.444;2023-02-26T16:57:03;6.75;;;1.48;;
68718;SDS011;55696;52.138;5.444;2023-02-26T16:59:39;5.82;;;1.52;;
68718;SDS011;55696;52.138;5.444;2023-02-26T17:02:11;3.67;;;1.23;;
68718;SDS011;55696;52.138;5.444;2023-02-26T17:04:44;5.57;;;1.60;;
68718;SDS011;55696;52.138;5.444;2023-02-26T17:07:16;5.03;;;1.73;;
68718;SDS011;55696;52.138;5.444;2023-02-26T17:09:55;5.45;;;1.50;;
68718;SDS011;55696;52.138;5.444;2023-02-26T17:12:41;6.97;;;1.33;;
68718;SDS011;55696;52.138;5.444;2023-02-26T17:15:28;7.63;;;1.70;;
68718;SDS011;55696;52.138;5.444;2023-02-26T17:17:56;4.90;;;1.30;;
68718;SDS011;55696;52.138;5.444;2023-02-26T17:20:24;4.13;;;1.30;;
68718;SDS011;55696;52.138;5.444;2023-02-26T17:22:52;4.03;;;1.70;;
68718;SDS011;55696;52.138;5.444;2023-02-26T17:25:21;3.05;;;1.55;;
68718;SDS011;55696;52.138;5.444;2023-02-26T17:27:50;4.90;;;1.73;;
68718;SDS011;55696;52.138;5.444;2023-02-26T17:30:18;5.73;;;1.63;;
68718;SDS011;55696;52.138;5.444;2023-02-26T17:32:46;7.78;;;1.60;;
68718;SDS011;55696;52.138;5.444;2023-02-26T17:35:14;5.93;;;1.85;;
68718;SDS011;55696;52.138;5.444;2023-02-26T17:37:43;6.70;;;1.85;;
68718;SDS011;55696;52.138;5.444;2023-02-26T17:40:33;4.22;;;1.70;;
68718;SDS011;55696;52.138;5.444;2023-02-26T17:43:03;8.87;;;1.70;;
68718;SDS011;55696;52.138;5.444;2023-02-26T17:45:31;5.75;;;2.00;;
68718;SDS011;55696;52.138;5.444;2023-02-26T17:47:59;5.78;;;1.65;;
68718;SDS011;55696;52.138;5.444;2023-02-26T17:53:05;5.68;;;1.20;;
68718;SDS011;55696;52.138;5.444;2023-02-26T17:55:33;6.53;;;2.37;;
68718;SDS011;55696;52.138;5.444;2023-02-26T17:58:02;8.32;;;1.80;;
68718;SDS011;55696;52.138;5.444;2023-02-26T18:00:29;5.72;;;1.80;;
68718;SDS011;55696;52.138;5.444;2023-02-26T18:02:56;7.22;;;2.10;;
68718;SDS011;55696;52.138;5.444;2023-02-26T18:05:23;7.57;;;2.20;;
68718;SDS011;55696;52.138;5.444;2023-02-26T18:07:52;6.80;;;2.20;;
68718;SDS011;55696;52.138;5.444;2023-02-26T18:10:20;10.63;;;2.03;;
68718;SDS011;55696;52.138;5.444;2023-02-26T18:12:50;5.25;;;1.88;;
68718;SDS011;55696;52.138;5.444;2023-02-26T18:15:17;5.88;;;2.42;;
68718;SDS011;55696;52.138;5.444;2023-02-26T18:17:44;6.90;;;2.20;;
68718;SDS011;55696;52.138;5.444;2023-02-26T18:20:20;8.17;;;2.53;;
68718;SDS011;55696;52.138;5.444;2023-02-26T18:22:48;10.85;;;2.80;;
68718;SDS011;55696;52.138;5.444;2023-02-26T18:25:16;9.90;;;3.67;;
68718;SDS011;55696;52.138;5.444;2023-02-26T18:27:43;8.23;;;2.08;;